<?xml version="1.0" encoding="UTF-8" standalone="no" ?>
<gpx xmlns="http://www.topografix.com/GPX/1/1" xmlns:xsi="http://www.w3.org/2001/XMLSchema-instance" xsi:schemaLocation="http://www.topografix.com/GPX/1/1 http://www.topografix.com/GPX/1/1/gpx.xsd" version="1.1" creator="VisuGPX - https://www.visugpx.com">
  <metadata>
    <name>83-2014-Aups - Col de la Bigue - A/R </name>
    <desc><![CDATA[Aups - Col de la Bigue - A/R]]></desc>
  </metadata>
  <wpt lat="43.66222" lon="6.2266">
    <ele>779.54</ele>
    <name><![CDATA[aups]]></name>
    <desc><![CDATA[]]></desc>
    <type><![CDATA[Point de navigation]]></type>
  </wpt>
  <wpt lat="43.65689" lon="6.23896">
    <ele>870.7</ele>
    <name><![CDATA[aup]]></name>
    <desc><![CDATA[]]></desc>
    <type><![CDATA[Point de navigation]]></type>
  </wpt>
  <wpt lat="43.65599" lon="6.24042">
    <ele>886.78</ele>
    <name><![CDATA[]]></name>
    <desc><![CDATA[]]></desc>
    <type><![CDATA[Point de navigation]]></type>
  </wpt>
  <trk>
    <name><![CDATA[]]></name>
    <desc><![CDATA[<h1>OruxMaps</h1><br /><hr align="center" width="480" style="height: 2px; width: 517px"/><h2>Nom: </h2><br /><p>Temps de départ: 01/01/2014 12:01</p><p>Temps d'arrivée: 01/01/2014 13:29</p><p>Distance: 3,6 km (01:08)</p><p>Temps déplacement: 01:02</p><p>Vitesse moyenne: 3,2 km/h</p><p>Vitesse moyenne: 3,4 km/h</p><p>Vitess Max.: 6,1 km/h</p><p>Altitude minimale: 763 m</p><p>Altitude maximale: 890 m</p><p>Vitesse d'élévation: 228,3 m/h</p><p>Vitesse de descente: -301,5 m/h</p><p>Gain Altitude: 81 m</p><p>Perte Altitude: -97 m</p><p>Temps d'élévation: 00:21</p><p>Temps de descente: 00:19</p><hr align="center" width="480" style="height: 2px; width: 517px"/>]]></desc>
    <trkseg>
      <trkpt lat="43.66233" lon="6.22639">
        <ele>763.25</ele>
        <time>2014-01-01T11:01:11Z</time>
      </trkpt>
      <trkpt lat="43.66233" lon="6.22657">
        <ele>763.84</ele>
        <time>2014-01-01T11:01:35Z</time>
      </trkpt>
      <trkpt lat="43.66231" lon="6.22632">
        <ele>767.59</ele>
        <time>2014-01-01T11:02:06Z</time>
      </trkpt>
      <trkpt lat="43.66223" lon="6.22632">
        <ele>771.06</ele>
        <time>2014-01-01T11:02:46Z</time>
      </trkpt>
      <trkpt lat="43.66223" lon="6.22632">
        <ele>771.06</ele>
        <time>2014-01-01T11:02:46Z</time>
      </trkpt>
      <trkpt lat="43.66213" lon="6.22654">
        <ele>774.27</ele>
        <time>2014-01-01T11:03:04Z</time>
      </trkpt>
      <trkpt lat="43.66202" lon="6.22677">
        <ele>777.21</ele>
        <time>2014-01-01T11:03:24Z</time>
      </trkpt>
      <trkpt lat="43.66183" lon="6.22678">
        <ele>779.33</ele>
        <time>2014-01-01T11:03:42Z</time>
      </trkpt>
      <trkpt lat="43.66165" lon="6.22672">
        <ele>781.22</ele>
        <time>2014-01-01T11:04:02Z</time>
      </trkpt>
      <trkpt lat="43.66146" lon="6.22674">
        <ele>782.01</ele>
        <time>2014-01-01T11:04:22Z</time>
      </trkpt>
      <trkpt lat="43.66137" lon="6.22697">
        <ele>780.26</ele>
        <time>2014-01-01T11:04:56Z</time>
      </trkpt>
      <trkpt lat="43.66141" lon="6.22722">
        <ele>780.49</ele>
        <time>2014-01-01T11:05:08Z</time>
      </trkpt>
      <trkpt lat="43.6614" lon="6.22747">
        <ele>783.7</ele>
        <time>2014-01-01T11:05:46Z</time>
      </trkpt>
      <trkpt lat="43.6614" lon="6.22747">
        <ele>783.7</ele>
        <time>2014-01-01T11:05:46Z</time>
      </trkpt>
      <trkpt lat="43.66126" lon="6.22764">
        <ele>787.34</ele>
        <time>2014-01-01T11:06:10Z</time>
      </trkpt>
      <trkpt lat="43.6611" lon="6.22778">
        <ele>789.32</ele>
        <time>2014-01-01T11:06:32Z</time>
      </trkpt>
      <trkpt lat="43.66102" lon="6.22803">
        <ele>790.86</ele>
        <time>2014-01-01T11:06:58Z</time>
      </trkpt>
      <trkpt lat="43.66099" lon="6.22828">
        <ele>790.61</ele>
        <time>2014-01-01T11:07:16Z</time>
      </trkpt>
      <trkpt lat="43.66095" lon="6.22854">
        <ele>791.19</ele>
        <time>2014-01-01T11:07:38Z</time>
      </trkpt>
      <trkpt lat="43.66089" lon="6.2288">
        <ele>791.64</ele>
        <time>2014-01-01T11:08:00Z</time>
      </trkpt>
      <trkpt lat="43.66083" lon="6.22905">
        <ele>792.28</ele>
        <time>2014-01-01T11:08:18Z</time>
      </trkpt>
      <trkpt lat="43.66089" lon="6.2293">
        <ele>793.58</ele>
        <time>2014-01-01T11:08:42Z</time>
      </trkpt>
      <trkpt lat="43.66089" lon="6.2293">
        <ele>793.58</ele>
        <time>2014-01-01T11:08:42Z</time>
      </trkpt>
      <trkpt lat="43.66093" lon="6.22955">
        <ele>794.92</ele>
        <time>2014-01-01T11:09:04Z</time>
      </trkpt>
      <trkpt lat="43.66102" lon="6.22978">
        <ele>798.42</ele>
        <time>2014-01-01T11:09:34Z</time>
      </trkpt>
      <trkpt lat="43.66114" lon="6.23">
        <ele>800.4</ele>
        <time>2014-01-01T11:09:54Z</time>
      </trkpt>
      <trkpt lat="43.66113" lon="6.23026">
        <ele>802.41</ele>
        <time>2014-01-01T11:10:30Z</time>
      </trkpt>
      <trkpt lat="43.66118" lon="6.2305">
        <ele>804.06</ele>
        <time>2014-01-01T11:10:53Z</time>
      </trkpt>
      <trkpt lat="43.66119" lon="6.23075">
        <ele>805.82</ele>
        <time>2014-01-01T11:11:17Z</time>
      </trkpt>
      <trkpt lat="43.66119" lon="6.23102">
        <ele>808.13</ele>
        <time>2014-01-01T11:11:47Z</time>
      </trkpt>
      <trkpt lat="43.66119" lon="6.23102">
        <ele>808.13</ele>
        <time>2014-01-01T11:11:47Z</time>
      </trkpt>
      <trkpt lat="43.66116" lon="6.23127">
        <ele>810.33</ele>
        <time>2014-01-01T11:12:07Z</time>
      </trkpt>
      <trkpt lat="43.66123" lon="6.23151">
        <ele>814.56</ele>
        <time>2014-01-01T11:12:31Z</time>
      </trkpt>
      <trkpt lat="43.66128" lon="6.23177">
        <ele>817.48</ele>
        <time>2014-01-01T11:13:01Z</time>
      </trkpt>
      <trkpt lat="43.66119" lon="6.23198">
        <ele>818.89</ele>
        <time>2014-01-01T11:13:19Z</time>
      </trkpt>
      <trkpt lat="43.66112" lon="6.23199">
        <ele>820.36</ele>
        <time>2014-01-01T11:13:51Z</time>
      </trkpt>
      <trkpt lat="43.661" lon="6.23218">
        <ele>822.22</ele>
        <time>2014-01-01T11:14:07Z</time>
      </trkpt>
      <trkpt lat="43.66099" lon="6.23244">
        <ele>822.03</ele>
        <time>2014-01-01T11:14:25Z</time>
      </trkpt>
      <trkpt lat="43.66087" lon="6.23268">
        <ele>823.03</ele>
        <time>2014-01-01T11:14:57Z</time>
      </trkpt>
      <trkpt lat="43.66087" lon="6.23268">
        <ele>823.03</ele>
        <time>2014-01-01T11:14:57Z</time>
      </trkpt>
      <trkpt lat="43.66084" lon="6.23295">
        <ele>824.09</ele>
        <time>2014-01-01T11:15:17Z</time>
      </trkpt>
      <trkpt lat="43.66087" lon="6.23321">
        <ele>824.48</ele>
        <time>2014-01-01T11:15:41Z</time>
      </trkpt>
      <trkpt lat="43.66088" lon="6.23346">
        <ele>826.43</ele>
        <time>2014-01-01T11:16:07Z</time>
      </trkpt>
      <trkpt lat="43.66083" lon="6.23371">
        <ele>829.07</ele>
        <time>2014-01-01T11:16:35Z</time>
      </trkpt>
      <trkpt lat="43.6607" lon="6.23389">
        <ele>833.02</ele>
        <time>2014-01-01T11:17:05Z</time>
      </trkpt>
      <trkpt lat="43.66055" lon="6.23405">
        <ele>836.21</ele>
        <time>2014-01-01T11:17:33Z</time>
      </trkpt>
      <trkpt lat="43.66051" lon="6.23431">
        <ele>840.27</ele>
        <time>2014-01-01T11:17:59Z</time>
      </trkpt>
      <trkpt lat="43.66051" lon="6.23431">
        <ele>840.27</ele>
        <time>2014-01-01T11:17:59Z</time>
      </trkpt>
      <trkpt lat="43.66051" lon="6.23457">
        <ele>842.15</ele>
        <time>2014-01-01T11:18:29Z</time>
      </trkpt>
      <trkpt lat="43.66061" lon="6.23482">
        <ele>843.64</ele>
        <time>2014-01-01T11:18:49Z</time>
      </trkpt>
      <trkpt lat="43.66062" lon="6.23508">
        <ele>845.85</ele>
        <time>2014-01-01T11:19:31Z</time>
      </trkpt>
      <trkpt lat="43.66053" lon="6.23532">
        <ele>845.61</ele>
        <time>2014-01-01T11:19:45Z</time>
      </trkpt>
      <trkpt lat="43.66047" lon="6.23556">
        <ele>845.64</ele>
        <time>2014-01-01T11:20:01Z</time>
      </trkpt>
      <trkpt lat="43.66037" lon="6.23578">
        <ele>845.83</ele>
        <time>2014-01-01T11:20:21Z</time>
      </trkpt>
      <trkpt lat="43.66019" lon="6.23588">
        <ele>846.45</ele>
        <time>2014-01-01T11:20:39Z</time>
      </trkpt>
      <trkpt lat="43.66005" lon="6.23605">
        <ele>847.56</ele>
        <time>2014-01-01T11:20:59Z</time>
      </trkpt>
      <trkpt lat="43.66005" lon="6.23605">
        <ele>847.56</ele>
        <time>2014-01-01T11:20:59Z</time>
      </trkpt>
      <trkpt lat="43.65993" lon="6.23626">
        <ele>849.13</ele>
        <time>2014-01-01T11:21:21Z</time>
      </trkpt>
      <trkpt lat="43.65978" lon="6.23644">
        <ele>849.59</ele>
        <time>2014-01-01T11:21:41Z</time>
      </trkpt>
      <trkpt lat="43.65963" lon="6.23658">
        <ele>848.86</ele>
        <time>2014-01-01T11:22:01Z</time>
      </trkpt>
      <trkpt lat="43.65948" lon="6.23675">
        <ele>848.16</ele>
        <time>2014-01-01T11:22:21Z</time>
      </trkpt>
      <trkpt lat="43.65931" lon="6.23688">
        <ele>847.26</ele>
        <time>2014-01-01T11:22:43Z</time>
      </trkpt>
      <trkpt lat="43.65912" lon="6.23687">
        <ele>846.3</ele>
        <time>2014-01-01T11:23:01Z</time>
      </trkpt>
      <trkpt lat="43.65894" lon="6.23691">
        <ele>845.48</ele>
        <time>2014-01-01T11:23:21Z</time>
      </trkpt>
      <trkpt lat="43.65879" lon="6.23706">
        <ele>844.52</ele>
        <time>2014-01-01T11:23:39Z</time>
      </trkpt>
      <trkpt lat="43.65879" lon="6.23706">
        <ele>844.52</ele>
        <time>2014-01-01T11:23:39Z</time>
      </trkpt>
      <trkpt lat="43.65864" lon="6.2372">
        <ele>843.63</ele>
        <time>2014-01-01T11:24:13Z</time>
      </trkpt>
      <trkpt lat="43.65846" lon="6.23729">
        <ele>843.33</ele>
        <time>2014-01-01T11:24:33Z</time>
      </trkpt>
      <trkpt lat="43.65832" lon="6.23745">
        <ele>844.7</ele>
        <time>2014-01-01T11:25:17Z</time>
      </trkpt>
      <trkpt lat="43.65819" lon="6.23763">
        <ele>848.39</ele>
        <time>2014-01-01T11:25:53Z</time>
      </trkpt>
      <trkpt lat="43.65801" lon="6.2377">
        <ele>852.19</ele>
        <time>2014-01-01T11:26:29Z</time>
      </trkpt>
      <trkpt lat="43.65801" lon="6.2377">
        <ele>852.19</ele>
        <time>2014-01-01T11:26:29Z</time>
      </trkpt>
      <trkpt lat="43.65783" lon="6.23774">
        <ele>855.46</ele>
        <time>2014-01-01T11:27:09Z</time>
      </trkpt>
      <trkpt lat="43.65772" lon="6.23772">
        <ele>857.52</ele>
        <time>2014-01-01T11:27:53Z</time>
      </trkpt>
      <trkpt lat="43.65769" lon="6.23768">
        <ele>857.04</ele>
        <time>2014-01-01T11:28:25Z</time>
      </trkpt>
      <trkpt lat="43.65761" lon="6.23791">
        <ele>860.12</ele>
        <time>2014-01-01T11:29:09Z</time>
      </trkpt>
      <trkpt lat="43.65753" lon="6.23799">
        <ele>861.88</ele>
        <time>2014-01-01T11:30:05Z</time>
      </trkpt>
      <trkpt lat="43.65736" lon="6.2381">
        <ele>865.37</ele>
        <time>2014-01-01T11:30:51Z</time>
      </trkpt>
      <trkpt lat="43.65723" lon="6.23829">
        <ele>868.02</ele>
        <time>2014-01-01T11:31:19Z</time>
      </trkpt>
      <trkpt lat="43.65708" lon="6.23845">
        <ele>868.74</ele>
        <time>2014-01-01T11:31:39Z</time>
      </trkpt>
      <trkpt lat="43.65693" lon="6.2386">
        <ele>869.58</ele>
        <time>2014-01-01T11:32:05Z</time>
      </trkpt>
      <trkpt lat="43.65686" lon="6.23883">
        <ele>870.53</ele>
        <time>2014-01-01T11:32:51Z</time>
      </trkpt>
      <trkpt lat="43.65686" lon="6.23883">
        <ele>870.53</ele>
        <time>2014-01-01T11:32:51Z</time>
      </trkpt>
      <trkpt lat="43.65688" lon="6.23892">
        <ele>870.6</ele>
        <time>2014-01-01T11:33:11Z</time>
      </trkpt>
      <trkpt lat="43.65698" lon="6.23915">
        <ele>872.04</ele>
        <time>2014-01-01T11:34:25Z</time>
      </trkpt>
      <trkpt lat="43.657" lon="6.2394">
        <ele>872.89</ele>
        <time>2014-01-01T11:34:41Z</time>
      </trkpt>
      <trkpt lat="43.65705" lon="6.23965">
        <ele>875.5</ele>
        <time>2014-01-01T11:35:01Z</time>
      </trkpt>
      <trkpt lat="43.65712" lon="6.2399">
        <ele>876.67</ele>
        <time>2014-01-01T11:35:19Z</time>
      </trkpt>
      <trkpt lat="43.65703" lon="6.24012">
        <ele>879.28</ele>
        <time>2014-01-01T11:35:43Z</time>
      </trkpt>
      <trkpt lat="43.65703" lon="6.24012">
        <ele>879.28</ele>
        <time>2014-01-01T11:35:43Z</time>
      </trkpt>
      <trkpt lat="43.65686" lon="6.24022">
        <ele>881.05</ele>
        <time>2014-01-01T11:36:07Z</time>
      </trkpt>
      <trkpt lat="43.65667" lon="6.24025">
        <ele>880.3</ele>
        <time>2014-01-01T11:36:27Z</time>
      </trkpt>
      <trkpt lat="43.65649" lon="6.24028">
        <ele>878.88</ele>
        <time>2014-01-01T11:36:51Z</time>
      </trkpt>
      <trkpt lat="43.65631" lon="6.24031">
        <ele>879.13</ele>
        <time>2014-01-01T11:37:17Z</time>
      </trkpt>
      <trkpt lat="43.65613" lon="6.24033">
        <ele>881.27</ele>
        <time>2014-01-01T11:37:45Z</time>
      </trkpt>
      <trkpt lat="43.656" lon="6.2405">
        <ele>885.11</ele>
        <time>2014-01-01T11:38:21Z</time>
      </trkpt>
      <trkpt lat="43.656" lon="6.2405">
        <ele>885.11</ele>
        <time>2014-01-01T11:38:21Z</time>
      </trkpt>
      <trkpt lat="43.65597" lon="6.24048">
        <ele>888.72</ele>
        <time>2014-01-01T11:39:35Z</time>
      </trkpt>
      <trkpt lat="43.65598" lon="6.24043">
        <ele>889.31</ele>
        <time>2014-01-01T11:40:24Z</time>
      </trkpt>
      <trkpt lat="43.65599" lon="6.24047">
        <ele>889.46</ele>
        <time>2014-01-01T11:40:50Z</time>
      </trkpt>
      <trkpt lat="43.65582" lon="6.24053">
        <ele>890.22</ele>
        <time>2014-01-01T11:41:24Z</time>
      </trkpt>
      <trkpt lat="43.65564" lon="6.24061">
        <ele>890.67</ele>
        <time>2014-01-01T11:41:54Z</time>
      </trkpt>
      <trkpt lat="43.65564" lon="6.24061">
        <ele>890.67</ele>
        <time>2014-01-01T11:41:54Z</time>
      </trkpt>
      <trkpt lat="43.65557" lon="6.24084">
        <ele>889.47</ele>
        <time>2014-01-01T11:42:18Z</time>
      </trkpt>
      <trkpt lat="43.6554" lon="6.24092">
        <ele>884.99</ele>
        <time>2014-01-01T11:42:50Z</time>
      </trkpt>
      <trkpt lat="43.65521" lon="6.24092">
        <ele>882.08</ele>
        <time>2014-01-01T11:43:20Z</time>
      </trkpt>
      <trkpt lat="43.65508" lon="6.24109">
        <ele>877.59</ele>
        <time>2014-01-01T11:44:10Z</time>
      </trkpt>
      <trkpt lat="43.65508" lon="6.24109">
        <ele>877.59</ele>
        <time>2014-01-01T11:44:10Z</time>
      </trkpt>
      <trkpt lat="43.65507" lon="6.24115">
        <ele>874.86</ele>
        <time>2014-01-01T11:45:24Z</time>
      </trkpt>
      <trkpt lat="43.65512" lon="6.24091">
        <ele>873.71</ele>
        <time>2014-01-01T11:45:48Z</time>
      </trkpt>
      <trkpt lat="43.65517" lon="6.24066">
        <ele>870.77</ele>
        <time>2014-01-01T11:46:26Z</time>
      </trkpt>
      <trkpt lat="43.65519" lon="6.2404">
        <ele>869.74</ele>
        <time>2014-01-01T11:46:44Z</time>
      </trkpt>
      <trkpt lat="43.65524" lon="6.24016">
        <ele>868.49</ele>
        <time>2014-01-01T11:47:08Z</time>
      </trkpt>
      <trkpt lat="43.65519" lon="6.23992">
        <ele>866.1</ele>
        <time>2014-01-01T11:47:54Z</time>
      </trkpt>
      <trkpt lat="43.65519" lon="6.23994">
        <ele>865.96</ele>
        <time>2014-01-01T11:48:04Z</time>
      </trkpt>
      <trkpt lat="43.6553" lon="6.23984">
        <ele>864.68</ele>
        <time>2014-01-01T11:48:50Z</time>
      </trkpt>
      <trkpt lat="43.65521" lon="6.23987">
        <ele>863.45</ele>
        <time>2014-01-01T11:50:00Z</time>
      </trkpt>
      <trkpt lat="43.6552" lon="6.23985">
        <ele>864.15</ele>
        <time>2014-01-01T11:50:26Z</time>
      </trkpt>
      <trkpt lat="43.6552" lon="6.23989">
        <ele>864.28</ele>
        <time>2014-01-01T11:50:51Z</time>
      </trkpt>
      <trkpt lat="43.6552" lon="6.23989">
        <ele>864.28</ele>
        <time>2014-01-01T11:50:51Z</time>
      </trkpt>
      <trkpt lat="43.65522" lon="6.23994">
        <ele>864.17</ele>
        <time>2014-01-01T11:51:37Z</time>
      </trkpt>
      <trkpt lat="43.6552" lon="6.23993">
        <ele>863.38</ele>
        <time>2014-01-01T11:52:21Z</time>
      </trkpt>
      <trkpt lat="43.65519" lon="6.23984">
        <ele>863.73</ele>
        <time>2014-01-01T11:52:45Z</time>
      </trkpt>
      <trkpt lat="43.65522" lon="6.23988">
        <ele>863.7</ele>
        <time>2014-01-01T11:53:21Z</time>
      </trkpt>
      <trkpt lat="43.65508" lon="6.23986">
        <ele>859.44</ele>
        <time>2014-01-01T11:55:21Z</time>
      </trkpt>
      <trkpt lat="43.65508" lon="6.23986">
        <ele>859.44</ele>
        <time>2014-01-01T11:55:21Z</time>
      </trkpt>
      <trkpt lat="43.65511" lon="6.23984">
        <ele>859.07</ele>
        <time>2014-01-01T11:55:51Z</time>
      </trkpt>
      <trkpt lat="43.65508" lon="6.23987">
        <ele>859.05</ele>
        <time>2014-01-01T11:56:25Z</time>
      </trkpt>
      <trkpt lat="43.65513" lon="6.23992">
        <ele>859.45</ele>
        <time>2014-01-01T11:57:37Z</time>
      </trkpt>
      <trkpt lat="43.65513" lon="6.23992">
        <ele>859.45</ele>
        <time>2014-01-01T11:57:37Z</time>
      </trkpt>
      <trkpt lat="43.65519" lon="6.23973">
        <ele>860.69</ele>
        <time>2014-01-01T11:58:57Z</time>
      </trkpt>
      <trkpt lat="43.65518" lon="6.23984">
        <ele>859.79</ele>
        <time>2014-01-01T11:59:57Z</time>
      </trkpt>
      <trkpt lat="43.65522" lon="6.24008">
        <ele>859.99</ele>
        <time>2014-01-01T12:00:17Z</time>
      </trkpt>
      <trkpt lat="43.65517" lon="6.24032">
        <ele>861.97</ele>
        <time>2014-01-01T12:00:39Z</time>
      </trkpt>
      <trkpt lat="43.65513" lon="6.24058">
        <ele>863.04</ele>
        <time>2014-01-01T12:00:55Z</time>
      </trkpt>
      <trkpt lat="43.65512" lon="6.24085">
        <ele>865.13</ele>
        <time>2014-01-01T12:01:21Z</time>
      </trkpt>
      <trkpt lat="43.65512" lon="6.24085">
        <ele>865.13</ele>
        <time>2014-01-01T12:01:21Z</time>
      </trkpt>
      <trkpt lat="43.65528" lon="6.24099">
        <ele>869.46</ele>
        <time>2014-01-01T12:01:55Z</time>
      </trkpt>
      <trkpt lat="43.65546" lon="6.2409">
        <ele>872.85</ele>
        <time>2014-01-01T12:02:22Z</time>
      </trkpt>
      <trkpt lat="43.6556" lon="6.24073">
        <ele>875.38</ele>
        <time>2014-01-01T12:02:52Z</time>
      </trkpt>
      <trkpt lat="43.65574" lon="6.24058">
        <ele>878.13</ele>
        <time>2014-01-01T12:03:16Z</time>
      </trkpt>
      <trkpt lat="43.65592" lon="6.24055">
        <ele>882.12</ele>
        <time>2014-01-01T12:03:46Z</time>
      </trkpt>
      <trkpt lat="43.65608" lon="6.24039">
        <ele>882.96</ele>
        <time>2014-01-01T12:04:08Z</time>
      </trkpt>
      <trkpt lat="43.65625" lon="6.24029">
        <ele>881.85</ele>
        <time>2014-01-01T12:04:38Z</time>
      </trkpt>
      <trkpt lat="43.65625" lon="6.24029">
        <ele>881.85</ele>
        <time>2014-01-01T12:04:38Z</time>
      </trkpt>
      <trkpt lat="43.65644" lon="6.24033">
        <ele>881.38</ele>
        <time>2014-01-01T12:05:04Z</time>
      </trkpt>
      <trkpt lat="43.65663" lon="6.24033">
        <ele>879.34</ele>
        <time>2014-01-01T12:05:26Z</time>
      </trkpt>
      <trkpt lat="43.65681" lon="6.2403">
        <ele>877.87</ele>
        <time>2014-01-01T12:05:46Z</time>
      </trkpt>
      <trkpt lat="43.65699" lon="6.24022">
        <ele>877.67</ele>
        <time>2014-01-01T12:06:04Z</time>
      </trkpt>
      <trkpt lat="43.65711" lon="6.24001">
        <ele>877.89</ele>
        <time>2014-01-01T12:06:24Z</time>
      </trkpt>
      <trkpt lat="43.6571" lon="6.23976">
        <ele>877.59</ele>
        <time>2014-01-01T12:06:48Z</time>
      </trkpt>
      <trkpt lat="43.65701" lon="6.23954">
        <ele>877.06</ele>
        <time>2014-01-01T12:07:10Z</time>
      </trkpt>
      <trkpt lat="43.65696" lon="6.23929">
        <ele>876.58</ele>
        <time>2014-01-01T12:07:26Z</time>
      </trkpt>
      <trkpt lat="43.65696" lon="6.23929">
        <ele>876.58</ele>
        <time>2014-01-01T12:07:26Z</time>
      </trkpt>
      <trkpt lat="43.65693" lon="6.23902">
        <ele>875.73</ele>
        <time>2014-01-01T12:07:54Z</time>
      </trkpt>
      <trkpt lat="43.65685" lon="6.23879">
        <ele>874.45</ele>
        <time>2014-01-01T12:08:18Z</time>
      </trkpt>
      <trkpt lat="43.6569" lon="6.23854">
        <ele>873</ele>
        <time>2014-01-01T12:08:38Z</time>
      </trkpt>
      <trkpt lat="43.65706" lon="6.23836">
        <ele>872.1</ele>
        <time>2014-01-01T12:08:54Z</time>
      </trkpt>
      <trkpt lat="43.65722" lon="6.23822">
        <ele>870.57</ele>
        <time>2014-01-01T12:09:10Z</time>
      </trkpt>
      <trkpt lat="43.6574" lon="6.23814">
        <ele>868.22</ele>
        <time>2014-01-01T12:09:28Z</time>
      </trkpt>
      <trkpt lat="43.65757" lon="6.23803">
        <ele>865.43</ele>
        <time>2014-01-01T12:09:46Z</time>
      </trkpt>
      <trkpt lat="43.65769" lon="6.23782">
        <ele>863.76</ele>
        <time>2014-01-01T12:10:00Z</time>
      </trkpt>
      <trkpt lat="43.65787" lon="6.23779">
        <ele>861.29</ele>
        <time>2014-01-01T12:10:23Z</time>
      </trkpt>
      <trkpt lat="43.65787" lon="6.23779">
        <ele>861.29</ele>
        <time>2014-01-01T12:10:23Z</time>
      </trkpt>
      <trkpt lat="43.65785" lon="6.23778">
        <ele>860.25</ele>
        <time>2014-01-01T12:10:50Z</time>
      </trkpt>
      <trkpt lat="43.65803" lon="6.23772">
        <ele>857.02</ele>
        <time>2014-01-01T12:11:16Z</time>
      </trkpt>
      <trkpt lat="43.6582" lon="6.23761">
        <ele>853.98</ele>
        <time>2014-01-01T12:11:44Z</time>
      </trkpt>
      <trkpt lat="43.65835" lon="6.23744">
        <ele>850.82</ele>
        <time>2014-01-01T12:12:06Z</time>
      </trkpt>
      <trkpt lat="43.6585" lon="6.23729">
        <ele>848.17</ele>
        <time>2014-01-01T12:12:28Z</time>
      </trkpt>
      <trkpt lat="43.65868" lon="6.23715">
        <ele>845.1</ele>
        <time>2014-01-01T12:12:46Z</time>
      </trkpt>
      <trkpt lat="43.65884" lon="6.23702">
        <ele>842.59</ele>
        <time>2014-01-01T12:13:00Z</time>
      </trkpt>
      <trkpt lat="43.65901" lon="6.23688">
        <ele>841.26</ele>
        <time>2014-01-01T12:13:16Z</time>
      </trkpt>
      <trkpt lat="43.65921" lon="6.2369">
        <ele>840.81</ele>
        <time>2014-01-01T12:13:36Z</time>
      </trkpt>
      <trkpt lat="43.65921" lon="6.2369">
        <ele>840.81</ele>
        <time>2014-01-01T12:13:36Z</time>
      </trkpt>
      <trkpt lat="43.6594" lon="6.23684">
        <ele>841.5</ele>
        <time>2014-01-01T12:13:54Z</time>
      </trkpt>
      <trkpt lat="43.65955" lon="6.23669">
        <ele>841.59</ele>
        <time>2014-01-01T12:14:14Z</time>
      </trkpt>
      <trkpt lat="43.65972" lon="6.23654">
        <ele>842.05</ele>
        <time>2014-01-01T12:14:36Z</time>
      </trkpt>
      <trkpt lat="43.65988" lon="6.23641">
        <ele>842.06</ele>
        <time>2014-01-01T12:14:52Z</time>
      </trkpt>
      <trkpt lat="43.65999" lon="6.2362">
        <ele>843.1</ele>
        <time>2014-01-01T12:15:12Z</time>
      </trkpt>
      <trkpt lat="43.6601" lon="6.23601">
        <ele>843.04</ele>
        <time>2014-01-01T12:15:32Z</time>
      </trkpt>
      <trkpt lat="43.66023" lon="6.23582">
        <ele>843.21</ele>
        <time>2014-01-01T12:15:50Z</time>
      </trkpt>
      <trkpt lat="43.66039" lon="6.23567">
        <ele>843.67</ele>
        <time>2014-01-01T12:16:10Z</time>
      </trkpt>
      <trkpt lat="43.66048" lon="6.23541">
        <ele>844.4</ele>
        <time>2014-01-01T12:16:30Z</time>
      </trkpt>
      <trkpt lat="43.66048" lon="6.23541">
        <ele>844.4</ele>
        <time>2014-01-01T12:16:30Z</time>
      </trkpt>
      <trkpt lat="43.66055" lon="6.23518">
        <ele>844.2</ele>
        <time>2014-01-01T12:16:48Z</time>
      </trkpt>
      <trkpt lat="43.66061" lon="6.23491">
        <ele>844.13</ele>
        <time>2014-01-01T12:17:06Z</time>
      </trkpt>
      <trkpt lat="43.66056" lon="6.23468">
        <ele>843.82</ele>
        <time>2014-01-01T12:17:24Z</time>
      </trkpt>
      <trkpt lat="43.66044" lon="6.23447">
        <ele>843.12</ele>
        <time>2014-01-01T12:17:42Z</time>
      </trkpt>
      <trkpt lat="43.66053" lon="6.23423">
        <ele>842.44</ele>
        <time>2014-01-01T12:18:06Z</time>
      </trkpt>
      <trkpt lat="43.66058" lon="6.23398">
        <ele>841.01</ele>
        <time>2014-01-01T12:18:28Z</time>
      </trkpt>
      <trkpt lat="43.66075" lon="6.23386">
        <ele>838.65</ele>
        <time>2014-01-01T12:18:48Z</time>
      </trkpt>
      <trkpt lat="43.66085" lon="6.23362">
        <ele>836.88</ele>
        <time>2014-01-01T12:19:10Z</time>
      </trkpt>
      <trkpt lat="43.66089" lon="6.23338">
        <ele>834.38</ele>
        <time>2014-01-01T12:19:30Z</time>
      </trkpt>
      <trkpt lat="43.66083" lon="6.23314">
        <ele>832.6</ele>
        <time>2014-01-01T12:19:46Z</time>
      </trkpt>
      <trkpt lat="43.66083" lon="6.23314">
        <ele>832.6</ele>
        <time>2014-01-01T12:19:46Z</time>
      </trkpt>
      <trkpt lat="43.6608" lon="6.23289">
        <ele>829.33</ele>
        <time>2014-01-01T12:20:04Z</time>
      </trkpt>
      <trkpt lat="43.66091" lon="6.23265">
        <ele>827.56</ele>
        <time>2014-01-01T12:20:18Z</time>
      </trkpt>
      <trkpt lat="43.66099" lon="6.2324">
        <ele>825.74</ele>
        <time>2014-01-01T12:20:34Z</time>
      </trkpt>
      <trkpt lat="43.66105" lon="6.23213">
        <ele>823.25</ele>
        <time>2014-01-01T12:20:52Z</time>
      </trkpt>
      <trkpt lat="43.6612" lon="6.23198">
        <ele>821.54</ele>
        <time>2014-01-01T12:21:06Z</time>
      </trkpt>
      <trkpt lat="43.66129" lon="6.23175">
        <ele>821.09</ele>
        <time>2014-01-01T12:21:22Z</time>
      </trkpt>
      <trkpt lat="43.66126" lon="6.23149">
        <ele>820.53</ele>
        <time>2014-01-01T12:21:40Z</time>
      </trkpt>
      <trkpt lat="43.66116" lon="6.23127">
        <ele>819.7</ele>
        <time>2014-01-01T12:21:56Z</time>
      </trkpt>
      <trkpt lat="43.66117" lon="6.23111">
        <ele>817.15</ele>
        <time>2014-01-01T12:22:52Z</time>
      </trkpt>
      <trkpt lat="43.66118" lon="6.23084">
        <ele>815.62</ele>
        <time>2014-01-01T12:23:16Z</time>
      </trkpt>
      <trkpt lat="43.66115" lon="6.23056">
        <ele>814.26</ele>
        <time>2014-01-01T12:23:34Z</time>
      </trkpt>
      <trkpt lat="43.66112" lon="6.23031">
        <ele>812.07</ele>
        <time>2014-01-01T12:23:50Z</time>
      </trkpt>
      <trkpt lat="43.66113" lon="6.23006">
        <ele>809.5</ele>
        <time>2014-01-01T12:24:06Z</time>
      </trkpt>
      <trkpt lat="43.66106" lon="6.2298">
        <ele>807.17</ele>
        <time>2014-01-01T12:24:22Z</time>
      </trkpt>
      <trkpt lat="43.66096" lon="6.22956">
        <ele>804.62</ele>
        <time>2014-01-01T12:24:42Z</time>
      </trkpt>
      <trkpt lat="43.66087" lon="6.22933">
        <ele>803.67</ele>
        <time>2014-01-01T12:24:58Z</time>
      </trkpt>
      <trkpt lat="43.66083" lon="6.22908">
        <ele>802.37</ele>
        <time>2014-01-01T12:25:12Z</time>
      </trkpt>
      <trkpt lat="43.66086" lon="6.22881">
        <ele>800.01</ele>
        <time>2014-01-01T12:25:28Z</time>
      </trkpt>
      <trkpt lat="43.66092" lon="6.22857">
        <ele>798.45</ele>
        <time>2014-01-01T12:25:42Z</time>
      </trkpt>
      <trkpt lat="43.66093" lon="6.22831">
        <ele>796.11</ele>
        <time>2014-01-01T12:25:58Z</time>
      </trkpt>
      <trkpt lat="43.66099" lon="6.22803">
        <ele>794.4</ele>
        <time>2014-01-01T12:26:16Z</time>
      </trkpt>
      <trkpt lat="43.66109" lon="6.22778">
        <ele>792.14</ele>
        <time>2014-01-01T12:26:34Z</time>
      </trkpt>
      <trkpt lat="43.66123" lon="6.22761">
        <ele>791.33</ele>
        <time>2014-01-01T12:26:48Z</time>
      </trkpt>
      <trkpt lat="43.66139" lon="6.22746">
        <ele>790.02</ele>
        <time>2014-01-01T12:27:04Z</time>
      </trkpt>
      <trkpt lat="43.66146" lon="6.22722">
        <ele>788.31</ele>
        <time>2014-01-01T12:27:34Z</time>
      </trkpt>
      <trkpt lat="43.66166" lon="6.22716">
        <ele>785.99</ele>
        <time>2014-01-01T12:28:00Z</time>
      </trkpt>
      <trkpt lat="43.66186" lon="6.22711">
        <ele>785.32</ele>
        <time>2014-01-01T12:28:20Z</time>
      </trkpt>
      <trkpt lat="43.66192" lon="6.22685">
        <ele>784.47</ele>
        <time>2014-01-01T12:28:44Z</time>
      </trkpt>
      <trkpt lat="43.66192" lon="6.22685">
        <ele>784.47</ele>
        <time>2014-01-01T12:28:44Z</time>
      </trkpt>
      <trkpt lat="43.66208" lon="6.2267">
        <ele>783.38</ele>
        <time>2014-01-01T12:29:16Z</time>
      </trkpt>
      <trkpt lat="43.66217" lon="6.22647">
        <ele>781.4</ele>
        <time>2014-01-01T12:29:40Z</time>
      </trkpt>
    </trkseg>
  </trk>
</gpx>